Glenpool, Oklahoma
Current Conditions -  °F | °C
As of 3:53 AM on Saturday 25 Oct 2014 (Local Time) from KRVS Reporting Station
Clear Clear  
Wind Chill: 59°   Ceiling: Unl
Heat Index: 59°   Visibility: 8mi
Dew Point: 58°   Wind: 3mph
Humidity: 96%   Direction: 180°S
Pressure: 30.05"   Gusts: NA
Location:  35.95°N, 96.01°W
Report Text: KRVS 250853Z 18003KT 8SM CLR 15/14 A3005 RMK AO2 SLP180 T01500144 55000
Loading
Personal Weather Stations






























Interactive Weather Map
Tropical Storm Tracking
New forecast layout! Learn more

10-Day Weather Forecast

Advertisements
Track Severe Weather on mobile